الصفحة الرئيسية
METAR-TAF:

METAR-TAF

مطار :

ماتشالا, الإكوادور

دائرة عرض: 03-26-07S, خط طول: 079-58-40W, ارتفاع: 52 متر

مراقبة الطقس الحالي

تاريخ ووقت الإصدار 58 دقيقة قبل الساعة 18:00UTC
ريح 5 عقدة من الغرب/الشمال الغربي
درجة الحرارة 31°درجة مئوية
الرطوبة 66%
ضغط 1010 hPa
الرؤية 10 كم أو أكثر
غيوم قليلة على ارتفاع 1000 قدم
غيوم مفككة على ارتفاع 8000 قدم

METAR: SERO 041800Z 30005KT 9999 FEW010 BKN080 31/24 Q1010

زمن: 13:58 (18:58 UTC)


TAF: مفقودة

أرصاد الطقس والتوقعات من أكثر من 4000 مطار (تقارير الطقس للمطار METAR والتنبؤ بالطقس بالمطارTAF).

المحطات المتاحة هي النقط الصفراء والحمراء على الخريطة.

حرك المؤشر فوق النقطة لمعرفة اسم المحطة.

ثم انقر لمعرفة أرصاد وتوقعات الطقس.

لتغيير الخارطة: اضغط على الأزرار الخضراء مع رمز الصليب الأسود للتكبير. على الزر الأخضر مع شرطة للتصغير، أو على الأسهم الخضراء للخرائط المجاورة.


METAR-TAF: